Time;durP1;ratioP1;P1;durP2;ratioP2;P2;SDS_P1;SDS_P2;PMS_P1;PMS_P2;Temp;Humidity;BMP_temperature;BMP_pressure;BME280_temperature;BME280_humidity;BME280_pressure;Samples;Min_cycle;Max_cycle;Signal;HPM_P1;HPM_P2
2023/06/08 00:00:11;;;;;;;7.53;4.78;;;;;;;20.21;50.75;100993.19;5073023;28;20059;-60
2023/06/08 00:02:40;;;;;;;9.45;5.03;;;;;;;20.21;50.85;100987.59;5077421;28;20048;-61
2023/06/08 00:05:08;;;;;;;8.98;4.97;;;;;;;20.31;51.26;100978.59;5077167;28;20040;-61
2023/06/08 00:07:36;;;;;;;11.55;5.47;;;;;;;20.32;50.79;100988.59;5077024;28;20041;-61
2023/06/08 00:10:04;;;;;;;7.28;4.95;;;;;;;20.22;51.35;100978.84;5076959;28;20057;-62
2023/06/08 00:12:33;;;;;;;11.85;5.53;;;;;;;20.13;51.53;100979.03;5077089;28;20063;-61
2023/06/08 00:15:00;;;;;;;14.07;5.60;;;;;;;20.03;52.22;100973.25;5077048;28;20048;-60
2023/06/08 00:17:28;;;;;;;8.73;5.28;;;;;;;19.96;52.50;100976.69;5075474;28;20064;-62
2023/06/08 00:19:56;;;;;;;10.52;5.75;;;;;;;19.92;52.67;100967.44;5076500;28;20040;-60
2023/06/08 00:22:24;;;;;;;9.48;5.88;;;;;;;19.98;52.62;100968.75;5076919;28;20064;-60
2023/06/08 00:24:51;;;;;;;8.15;5.32;;;;;;;20.00;52.46;100963.59;5076797;28;20052;-60
2023/06/08 00:27:19;;;;;;;12.25;6.18;;;;;;;19.85;53.45;100963.69;5076685;28;20478;-60
2023/06/08 00:29:46;;;;;;;11.70;6.60;;;;;;;19.84;53.66;100968.47;5076814;28;20044;-61
2023/06/08 00:32:13;;;;;;;9.65;5.88;;;;;;;19.84;54.05;100968.47;5077180;28;20055;-60
2023/06/08 00:34:41;;;;;;;9.45;5.20;;;;;;;19.95;53.86;100961.09;5057211;28;20400;-60
2023/06/08 00:37:08;;;;;;;9.88;5.85;;;;;;;19.97;53.65;100960.72;5075999;28;20067;-60
2023/06/08 00:39:35;;;;;;;10.98;6.10;;;;;;;19.93;53.71;100954.25;5073800;28;20044;-60
2023/06/08 00:42:03;;;;;;;9.88;6.10;;;;;;;20.02;54.13;100954.84;5076997;28;20088;-61
2023/06/08 00:44:31;;;;;;;11.73;5.93;;;;;;;20.07;53.83;100960.94;5072378;28;20040;-61
2023/06/08 00:46:59;;;;;;;11.68;5.90;;;;;;;20.26;53.27;100951.72;5059636;28;20052;-60
2023/06/08 00:49:27;;;;;;;13.52;6.13;;;;;;;20.11;53.59;100955.41;5061475;28;20061;-62
2023/06/08 00:51:54;;;;;;;12.52;6.47;;;;;;;20.03;53.96;100951.66;5054743;28;20540;-61
2023/06/08 00:54:25;;;;;;;8.48;6.20;;;;;;;19.86;55.19;100946.56;5066426;28;20036;-61
2023/06/08 00:56:55;;;;;;;14.70;6.35;;;;;;;19.91;55.00;100945.47;5075888;28;20045;-61
2023/06/08 00:59:23;;;;;;;11.10;6.65;;;;;;;19.71;55.82;100949.44;5074534;28;20075;-61
2023/06/08 01:01:50;;;;;;;11.65;6.40;;;;;;;19.79;55.90;100943.63;5074692;28;20049;-61
2023/06/08 01:04:18;;;;;;;10.23;6.53;;;;;;;19.81;55.50;100946.84;5054393;28;20052;-61
2023/06/08 01:06:48;;;;;;;13.40;6.22;;;;;;;19.72;55.91;100942.66;5056001;28;20056;-60
2023/06/08 01:09:23;;;;;;;10.57;6.60;;;;;;;20.00;55.32;100951.59;5073554;28;20642;-60
2023/06/08 01:12:23;;;;;;;9.35;6.13;;;;;;;20.03;55.28;100946.06;5074283;28;20535;-61
2023/06/08 01:15:10;;;;;;;12.30;6.50;;;;;;;19.94;55.48;100939.13;5060406;28;20063;-61
2023/06/08 01:17:40;;;;;;;11.30;6.68;;;;;;;19.89;55.67;100940.22;5057578;28;20494;-61
2023/06/08 01:20:39;;;;;;;8.63;6.15;;;;;;;20.02;55.25;100941.66;5074547;28;20063;-60
2023/06/08 01:23:34;;;;;;;9.90;6.03;;;;;;;19.99;55.57;100936.81;5057358;28;20048;-61
2023/06/08 01:26:03;;;;;;;10.57;6.35;;;;;;;19.90;55.26;100943.81;5074504;28;20049;-61
2023/06/08 01:28:31;;;;;;;13.05;6.68;;;;;;;19.97;55.37;100941.97;5072951;28;20044;-61
2023/06/08 01:30:58;;;;;;;10.52;6.43;;;;;;;19.92;55.78;100945.09;5066414;28;20064;-60
2023/06/08 01:33:28;;;;;;;11.52;6.70;;;;;;;19.83;56.27;100941.72;5062455;28;20655;-60
2023/06/08 01:35:57;;;;;;;15.50;7.72;;;;;;;19.72;56.70;100937.06;5047707;28;20052;-60
2023/06/08 01:38:44;;;;;;;12.85;6.80;;;;;;;19.80;56.26;100939.66;5053461;28;20053;-61
2023/06/08 01:41:22;;;;;;;9.27;7.10;;;;;;;19.56;57.26;100934.38;5059407;28;20052;-61
2023/06/08 01:43:50;;;;;;;13.20;7.28;;;;;;;19.54;57.72;100936.75;5074587;28;20063;-60
2023/06/08 01:46:21;;;;;;;12.80;7.18;;;;;;;19.73;56.97;100939.53;5057673;28;20047;-59
2023/06/08 01:48:49;;;;;;;11.32;6.80;;;;;;;19.94;56.42;100937.13;5051666;28;20056;-61
2023/06/08 01:51:17;;;;;;;11.82;7.07;;;;;;;19.52;57.85;100944.69;5053238;28;20060;-61
2023/06/08 01:53:45;;;;;;;13.63;6.93;;;;;;;19.65;57.96;100942.56;5037334;28;20053;-62
2023/06/08 01:56:13;;;;;;;11.95;7.55;;;;;;;19.76;57.44;100941.56;5053847;28;20059;-60
2023/06/08 01:58:41;;;;;;;14.77;7.78;;;;;;;19.59;58.08;100944.81;5040819;28;20053;-61
2023/06/08 02:01:08;;;;;;;15.00;8.13;;;;;;;19.59;58.12;100944.00;5073663;28;20052;-62
2023/06/08 02:03:36;;;;;;;17.77;7.85;;;;;;;19.65;58.25;100939.75;5073403;28;20052;-62
2023/06/08 02:06:03;;;;;;;18.17;8.40;;;;;;;19.38;58.86;100951.94;5074761;28;20048;-66
2023/06/08 02:08:32;;;;;;;15.48;8.75;;;;;;;19.25;59.99;100956.81;5074474;28;20060;-61
2023/06/08 02:11:00;;;;;;;14.98;7.85;;;;;;;19.39;59.41;100946.00;5073267;28;20059;-61
2023/06/08 02:13:27;;;;;;;13.27;8.18;;;;;;;19.36;59.38;100951.50;5074953;28;20040;-61
2023/06/08 02:15:54;;;;;;;13.63;8.02;;;;;;;19.48;59.19;100948.56;5073442;28;20053;-62
2023/06/08 02:18:21;;;;;;;12.60;7.90;;;;;;;19.41;58.92;100946.44;5075365;28;20053;-63
2023/06/08 02:20:50;;;;;;;12.35;8.00;;;;;;;19.25;59.58;100934.47;5069396;28;20072;-62
2023/06/08 02:23:17;;;;;;;13.10;7.47;;;;;;;19.36;59.54;100938.34;5059090;28;20060;-61
2023/06/08 02:25:45;;;;;;;13.30;7.95;;;;;;;19.25;59.85;100939.28;5063631;28;20047;-61
2023/06/08 02:28:14;;;;;;;13.82;8.68;;;;;;;19.12;60.27;100944.19;5053972;28;20048;-61
2023/06/08 02:30:41;;;;;;;15.13;7.70;;;;;;;19.23;59.87;100936.81;5054470;28;20068;-60
2023/06/08 02:33:09;;;;;;;13.32;8.00;;;;;;;18.96;60.85;100944.22;5053228;28;20057;-60
2023/06/08 02:35:37;;;;;;;14.82;8.23;;;;;;;19.19;60.68;100933.16;5052657;28;20052;-62
2023/06/08 02:38:05;;;;;;;14.07;8.30;;;;;;;19.16;60.48;100939.47;5052578;28;20059;-60
2023/06/08 02:40:32;;;;;;;12.18;8.15;;;;;;;19.41;60.21;100937.22;5053034;28;20053;-60
2023/06/08 02:43:00;;;;;;;14.15;8.45;;;;;;;19.27;60.36;100934.94;5053200;28;20057;-60
2023/06/08 02:45:28;;;;;;;14.82;8.45;;;;;;;19.36;59.93;100937.53;5036749;28;20053;-60
2023/06/08 02:47:57;;;;;;;14.75;9.05;;;;;;;19.13;60.62;100934.63;5052739;28;20652;-61
2023/06/08 02:50:25;;;;;;;14.68;9.30;;;;;;;18.73;62.66;100942.47;5053983;28;20045;-61
2023/06/08 02:52:52;;;;;;;14.43;8.93;;;;;;;18.78;63.10;100936.59;5054344;28;20048;-62
2023/06/08 02:55:20;;;;;;;14.15;9.60;;;;;;;19.02;61.82;100941.97;5052371;28;20524;-61
2023/06/08 02:57:50;;;;;;;13.90;9.00;;;;;;;19.05;61.96;100946.81;5054830;28;20056;-61
2023/06/08 03:00:20;;;;;;;16.80;9.95;;;;;;;18.87;63.02;100946.41;5056835;28;20071;-60
2023/06/08 03:03:00;;;;;;;18.30;9.50;;;;;;;19.00;62.36;100939.50;5076025;28;20044;-62
2023/06/08 03:05:29;;;;;;;13.93;9.57;;;;;;;18.54;63.93;100939.59;5057560;28;20048;-61
2023/06/08 03:07:58;;;;;;;16.50;10.20;;;;;;;18.59;64.56;100937.34;5060323;28;20064;-61
2023/06/08 03:10:26;;;;;;;21.60;10.40;;;;;;;18.52;64.38;100936.34;5072571;28;20053;-61
2023/06/08 03:12:54;;;;;;;17.50;10.23;;;;;;;18.69;64.39;100938.78;5065878;28;20059;-62
2023/06/08 03:15:25;;;;;;;16.20;9.90;;;;;;;18.75;63.56;100937.31;5077384;28;20078;-61
2023/06/08 03:17:58;;;;;;;15.90;9.95;;;;;;;18.65;63.82;100941.50;5055221;28;20053;-60
2023/06/08 03:20:26;;;;;;;15.88;10.13;;;;;;;18.93;62.90;100944.16;5071598;28;20055;-60
2023/06/08 03:23:01;;;;;;;17.88;9.50;;;;;;;18.86;62.07;100933.59;5072029;28;20055;-62
2023/06/08 03:25:30;;;;;;;17.08;9.70;;;;;;;18.73;62.49;100937.69;5056442;28;20048;-63
2023/06/08 03:27:58;;;;;;;16.45;9.63;;;;;;;18.70;62.62;100935.63;5072585;28;20053;-61
2023/06/08 03:30:26;;;;;;;14.93;9.48;;;;;;;18.70;62.22;100932.03;5056315;28;20405;-61
2023/06/08 03:32:55;;;;;;;13.90;9.43;;;;;;;18.73;62.44;100932.13;5058109;28;20574;-62
2023/06/08 03:35:28;;;;;;;17.40;9.40;;;;;;;18.56;62.68;100923.31;5050365;28;20056;-61
2023/06/08 03:38:12;;;;;;;14.25;9.15;;;;;;;18.53;62.89;100924.03;5051373;28;20051;-62
2023/06/08 03:40:40;;;;;;;15.65;10.02;;;;;;;18.22;64.26;100922.03;5051285;28;20144;-61
2023/06/08 03:43:07;;;;;;;16.70;9.50;;;;;;;18.27;64.02;100921.75;5051730;28;20081;-62
2023/06/08 03:45:34;;;;;;;13.52;9.75;;;;;;;18.27;64.31;100924.53;5054735;28;20052;-61
2023/06/08 03:48:02;;;;;;;16.25;9.52;;;;;;;18.25;64.16;100921.34;5072449;28;20048;-62
2023/06/08 03:50:33;;;;;;;20.35;9.82;;;;;;;18.12;64.20;100927.34;5056668;28;20053;-62
2023/06/08 03:53:00;;;;;;;15.45;9.65;;;;;;;18.04;65.08;100929.16;5052022;28;20049;-61
2023/06/08 03:55:28;;;;;;;20.33;10.32;;;;;;;17.89;65.24;100927.94;5051945;28;20501;-61
2023/06/08 03:57:56;;;;;;;15.43;9.65;;;;;;;17.94;65.29;100918.50;5052327;28;20041;-61
2023/06/08 04:00:24;;;;;;;16.63;9.60;;;;;;;18.02;64.64;100920.34;5052838;28;20056;-62
2023/06/08 04:02:54;;;;;;;16.63;10.00;;;;;;;17.96;65.24;100919.78;5072270;28;20068;-62
2023/06/08 04:05:23;;;;;;;18.63;9.82;;;;;;;18.04;64.69;100914.41;5052101;28;20067;-64
2023/06/08 04:07:51;;;;;;;12.13;9.45;;;;;;;18.11;64.70;100917.38;5060681;28;20049;-61
2023/06/08 04:10:18;;;;;;;14.45;10.23;;;;;;;18.17;64.67;100921.50;5073772;28;20057;-62
2023/06/08 04:12:46;;;;;;;17.00;9.73;;;;;;;18.39;63.91;100916.13;5055582;28;20059;-61
2023/06/08 04:15:14;;;;;;;17.40;9.73;;;;;;;18.38;63.35;100919.25;5077015;28;20430;-61
2023/06/08 04:17:46;;;;;;;17.52;10.27;;;;;;;18.22;63.92;100919.25;5053229;28;20057;-62
2023/06/08 04:20:17;;;;;;;14.23;9.90;;;;;;;18.14;64.57;100925.00;5038770;28;20068;-60
2023/06/08 04:22:45;;;;;;;18.02;10.57;;;;;;;18.13;64.92;100920.59;5071958;28;20086;-61
2023/06/08 04:25:13;;;;;;;16.40;10.55;;;;;;;17.89;65.01;100911.22;5073749;28;20044;-61
2023/06/08 04:27:42;;;;;;;16.90;11.00;;;;;;;17.93;65.38;100914.94;5038879;28;20044;-62
2023/06/08 04:30:11;;;;;;;17.48;11.23;;;;;;;17.95;65.33;100915.38;5038719;28;20080;-61
2023/06/08 04:32:39;;;;;;;16.67;10.43;;;;;;;18.10;65.06;100916.53;5055453;28;20460;-60
2023/06/08 04:35:07;;;;;;;17.85;10.55;;;;;;;17.87;66.06;100913.56;5055896;28;20041;-61
2023/06/08 04:37:36;;;;;;;22.70;10.80;;;;;;;17.82;66.42;100913.81;5055409;28;20504;-61
2023/06/08 04:40:06;;;;;;;18.30;11.55;;;;;;;17.77;66.45;100930.81;5060017;28;20048;-62
2023/06/08 04:42:34;;;;;;;22.92;11.40;;;;;;;17.71;66.82;100925.84;5075202;28;20060;-63
2023/06/08 04:45:03;;;;;;;21.48;11.10;;;;;;;17.78;66.86;100920.47;5075090;28;20052;-61
2023/06/08 04:47:33;;;;;;;19.85;12.05;;;;;;;18.02;66.43;100911.97;5075206;28;20053;-60
2023/06/08 04:50:07;;;;;;;19.90;12.18;;;;;;;18.14;65.77;100919.44;5074812;28;20059;-62
2023/06/08 04:52:40;;;;;;;21.48;13.00;;;;;;;17.94;66.47;100913.75;5058193;28;20048;-62
2023/06/08 04:55:12;;;;;;;18.88;12.68;;;;;;;17.84;67.57;100914.28;5061636;28;20041;-61
2023/06/08 04:57:41;;;;;;;21.15;13.80;;;;;;;17.76;67.65;100917.22;5054916;28;20057;-62
2023/06/08 05:00:10;;;;;;;20.48;12.80;;;;;;;17.65;68.44;100916.94;5049429;28;20049;-62
2023/06/08 05:02:37;;;;;;;17.73;12.88;;;;;;;17.92;67.41;100921.66;5072208;28;20419;-61
2023/06/08 05:05:07;;;;;;;19.27;13.40;;;;;;;17.83;68.40;100911.84;5080376;28;20052;-62
2023/06/08 05:07:34;;;;;;;22.93;14.00;;;;;;;17.71;68.79;100920.28;5059849;28;20052;-61
2023/06/08 05:10:02;;;;;;;17.67;13.95;;;;;;;17.74;68.94;100922.34;5075428;28;20084;-62
2023/06/08 05:12:30;;;;;;;19.48;14.75;;;;;;;17.66;69.79;100921.34;5076238;28;20393;-62
2023/06/08 05:14:57;;;;;;;26.77;15.93;;;;;;;17.63;70.26;100924.03;5076222;28;20056;-61
2023/06/08 05:17:24;;;;;;;25.90;15.73;;;;;;;17.68;70.33;100932.94;5096012;28;20048;-62
2023/06/08 05:19:52;;;;;;;29.02;15.52;;;;;;;17.64;70.47;100929.22;5083493;28;20056;-62
2023/06/08 05:22:19;;;;;;;23.40;16.15;;;;;;;17.86;70.19;100922.28;5075633;28;20055;-62
2023/06/08 05:24:47;;;;;;;30.05;16.08;;;;;;;17.74;70.64;100925.13;5075729;28;20610;-63
2023/06/08 05:27:18;;;;;;;25.20;15.50;;;;;;;17.86;70.54;100923.09;5057392;28;20049;-63
2023/06/08 05:29:45;;;;;;;22.42;16.67;;;;;;;17.92;70.07;100926.44;5037994;28;20041;-62
2023/06/08 05:32:12;;;;;;;30.40;17.85;;;;;;;17.52;72.15;100929.28;5055581;28;20048;-62
2023/06/08 05:34:40;;;;;;;28.17;15.95;;;;;;;17.63;72.58;100926.81;5054703;28;20052;-62
2023/06/08 05:37:07;;;;;;;26.63;16.52;;;;;;;17.88;71.10;100917.97;5054515;28;20045;-61
2023/06/08 05:39:34;;;;;;;27.35;17.42;;;;;;;17.59;72.55;100925.91;5058338;28;20056;-63
2023/06/08 05:42:02;;;;;;;23.73;16.33;;;;;;;17.74;72.31;100917.59;5074143;28;20056;-61
2023/06/08 05:44:30;;;;;;;31.10;17.85;;;;;;;17.66;72.27;100921.34;5075140;28;20543;-61
2023/06/08 05:46:57;;;;;;;26.77;17.60;;;;;;;17.67;72.49;100920.19;5074145;28;20408;-61
2023/06/08 05:49:25;;;;;;;27.63;18.67;;;;;;;17.79;72.49;100914.53;5075256;28;20075;-61
2023/06/08 05:51:53;;;;;;;26.98;18.88;;;;;;;17.65;73.45;100904.97;5075351;28;20602;-62
2023/06/08 05:54:20;;;;;;;25.75;17.58;;;;;;;17.95;72.21;100909.00;5074898;28;20063;-61
2023/06/08 05:56:47;;;;;;;30.73;18.33;;;;;;;18.22;71.24;100907.31;5074840;28;20041;-61
2023/06/08 05:59:15;;;;;;;27.67;17.73;;;;;;;18.34;70.86;100913.56;5049238;28;20159;-61
2023/06/08 06:01:42;;;;;;;35.65;19.10;;;;;;;18.36;70.16;100908.44;5068742;28;20052;-61
2023/06/08 06:04:10;;;;;;;33.90;18.90;;;;;;;18.27;70.69;100902.25;5058402;28;20094;-61
2023/06/08 06:06:52;;;;;;;32.72;18.17;;;;;;;18.53;69.96;100908.09;5073917;28;20044;-60
2023/06/08 06:09:20;;;;;;;33.70;19.98;;;;;;;18.41;70.08;100907.41;5066448;28;20065;-62
2023/06/08 06:11:48;;;;;;;30.67;18.80;;;;;;;18.64;69.90;100911.16;5059592;28;20049;-62
2023/06/08 06:14:15;;;;;;;30.73;19.60;;;;;;;18.50;70.19;100899.63;5058542;28;20051;-61
2023/06/08 06:16:43;;;;;;;36.05;19.38;;;;;;;18.63;69.98;100895.59;5052914;28;20063;-62
2023/06/08 06:19:36;;;;;;;32.83;17.95;;;;;;;18.85;68.64;100900.47;5055270;28;20075;-61
2023/06/08 06:22:08;;;;;;;27.45;18.15;;;;;;;18.83;69.27;100905.59;5057294;28;20611;-62
2023/06/08 06:24:35;;;;;;;32.08;19.27;;;;;;;18.55;70.36;100902.19;5065082;28;20052;-61
2023/06/08 06:27:05;;;;;;;34.80;20.08;;;;;;;18.47;70.94;100900.38;5061641;28;20044;-61
2023/06/08 06:29:33;;;;;;;32.72;19.17;;;;;;;18.78;69.98;100897.53;5059792;28;20052;-59
2023/06/08 06:32:00;;;;;;;25.83;18.42;;;;;;;19.21;68.16;100893.69;5059863;28;20080;-58
2023/06/08 06:34:28;;;;;;;35.80;22.77;;;;;;;19.30;67.45;100888.69;5062207;28;20052;-59
2023/06/08 06:36:56;;;;;;;29.30;19.67;;;;;;;19.24;67.70;100892.94;5056015;28;20059;-61
2023/06/08 06:39:27;;;;;;;30.17;21.17;;;;;;;18.65;69.91;100901.63;5052141;28;20060;-60
2023/06/08 06:41:54;;;;;;;30.45;21.02;;;;;;;18.47;70.98;100898.41;5055158;28;20053;-61
2023/06/08 06:44:26;;;;;;;30.95;20.50;;;;;;;18.35;71.84;100900.44;5050702;28;20041;-61
2023/06/08 06:46:53;;;;;;;32.78;20.92;;;;;;;18.82;70.36;100904.81;5065506;28;20048;-60
2023/06/08 06:49:20;;;;;;;29.23;20.35;;;;;;;19.02;69.58;100891.72;5057453;28;20045;-61
2023/06/08 06:51:48;;;;;;;32.70;19.77;;;;;;;19.27;68.59;100893.03;5059402;28;20495;-60
2023/06/08 06:54:15;;;;;;;40.92;21.65;;;;;;;19.47;67.69;100886.31;5072297;28;20053;-61
2023/06/08 06:56:43;;;;;;;34.15;21.35;;;;;;;19.55;67.31;100884.44;5073417;28;20052;-60
2023/06/08 06:59:10;;;;;;;37.28;20.75;;;;;;;19.31;68.29;100882.78;5068935;28;20059;-59
2023/06/08 07:01:37;;;;;;;27.88;20.50;;;;;;;19.62;67.43;100876.19;5040170;28;20045;-60
2023/06/08 07:04:05;;;;;;;33.65;20.88;;;;;;;19.95;66.44;100876.41;5059500;28;20036;-59
2023/06/08 07:06:33;;;;;;;38.60;21.98;;;;;;;19.95;65.40;100884.78;5063551;28;20060;-59
2023/06/08 07:09:00;;;;;;;34.50;21.23;;;;;;;19.92;66.28;100882.75;5053922;28;20041;-60
2023/06/08 07:11:27;;;;;;;29.02;19.90;;;;;;;20.25;64.92;100885.75;5059108;28;20481;-59
2023/06/08 07:13:55;;;;;;;30.13;21.23;;;;;;;20.11;64.96;100882.69;5055719;28;20063;-60
2023/06/08 07:16:24;;;;;;;34.53;23.27;;;;;;;19.80;66.01;100880.13;5058994;28;20053;-60
2023/06/08 07:18:54;;;;;;;30.48;20.92;;;;;;;19.99;65.78;100891.28;5056814;28;20055;-60
2023/06/08 07:21:23;;;;;;;40.25;21.90;;;;;;;20.08;65.77;100884.22;5051227;28;20060;-59
2023/06/08 07:24:01;;;;;;;29.20;19.77;;;;;;;20.59;64.01;100881.13;5067056;28;20326;-59
2023/06/08 07:26:48;;;;;;;32.60;21.52;;;;;;;20.66;63.40;100875.63;5064795;28;20049;-60
2023/06/08 07:29:16;;;;;;;31.70;22.08;;;;;;;20.40;64.22;100884.81;5056224;28;20045;-60
2023/06/08 07:31:43;;;;;;;32.80;20.67;;;;;;;20.61;64.22;100873.13;5048224;28;20076;-60
2023/06/08 07:34:10;;;;;;;33.45;20.48;;;;;;;20.98;62.25;100874.06;5065462;28;20144;-60
2023/06/08 07:36:38;;;;;;;32.38;20.98;;;;;;;21.27;61.43;100870.47;5055707;28;20409;-60
2023/06/08 07:39:09;;;;;;;31.85;20.02;;;;;;;21.48;61.10;100865.13;5058161;28;20481;-60
2023/06/08 07:41:38;;;;;;;31.98;19.15;;;;;;;22.09;58.63;100864.56;5054264;28;20041;-59
2023/06/08 07:44:05;;;;;;;34.00;19.10;;;;;;;22.30;57.76;100862.75;5057306;28;20036;-59
2023/06/08 07:46:32;;;;;;;28.00;20.50;;;;;;;22.04;57.86;100862.94;5059681;28;20155;-59
2023/06/08 07:49:00;;;;;;;30.55;19.17;;;;;;;22.07;58.09;100861.38;5055035;28;20052;-59
2023/06/08 07:51:27;;;;;;;31.17;19.13;;;;;;;22.50;57.27;100862.50;5053429;28;20052;-59
2023/06/08 07:53:55;;;;;;;31.73;18.83;;;;;;;22.56;56.36;100858.19;5056838;28;20044;-61
2023/06/08 07:56:22;;;;;;;35.75;20.17;;;;;;;22.46;57.21;100861.66;5056576;28;20056;-60
2023/06/08 07:58:50;;;;;;;32.53;19.92;;;;;;;22.44;57.14;100850.03;5055377;28;20488;-60
2023/06/08 08:01:17;;;;;;;33.35;19.92;;;;;;;22.22;57.76;100858.28;5079766;28;20060;-60
2023/06/08 08:03:45;;;;;;;31.35;20.48;;;;;;;22.05;57.63;100858.13;5056465;28;20055;-60
2023/06/08 08:06:13;;;;;;;28.63;19.60;;;;;;;22.18;57.65;100868.66;5049095;28;20067;-60
2023/06/08 08:08:40;;;;;;;32.55;18.85;;;;;;;22.53;56.67;100858.91;5063166;28;20079;-60
2023/06/08 08:11:08;;;;;;;29.00;20.83;;;;;;;22.24;57.27;100860.72;5057600;28;20052;-60
2023/06/08 08:13:35;;;;;;;34.53;18.67;;;;;;;22.31;57.19;100857.97;5055501;28;20056;-60
2023/06/08 08:16:03;;;;;;;27.92;18.70;;;;;;;22.39;56.96;100854.00;5057933;28;20052;-59
2023/06/08 08:18:31;;;;;;;30.63;19.00;;;;;;;22.11;58.10;100851.78;5061906;28;20081;-61
2023/06/08 08:20:59;;;;;;;34.83;19.45;;;;;;;22.22;58.23;100852.69;5062970;28;20072;-61
2023/06/08 08:23:27;;;;;;;32.22;18.10;;;;;;;22.54;57.42;100849.31;5060573;28;20061;-62
2023/06/08 08:25:54;;;;;;;25.27;17.40;;;;;;;22.57;57.10;100840.13;5058335;28;20048;-62
2023/06/08 08:28:22;;;;;;;26.23;18.55;;;;;;;22.59;57.10;100838.53;5042525;28;20044;-62
2023/06/08 08:30:50;;;;;;;38.05;20.08;;;;;;;22.18;58.12;100839.78;5057751;28;20052;-61
2023/06/08 08:33:17;;;;;;;32.08;18.63;;;;;;;22.47;57.55;100843.63;5058383;28;20045;-62
2023/06/08 08:35:44;;;;;;;23.58;16.38;;;;;;;22.46;57.64;100840.00;5068577;28;20060;-61
2023/06/08 08:38:12;;;;;;;31.70;18.60;;;;;;;22.31;57.68;100839.13;5058383;28;20045;-63
2023/06/08 08:40:42;;;;;;;31.52;18.30;;;;;;;22.19;58.06;100833.78;5062954;28;20048;-62
2023/06/08 08:43:19;;;;;;;46.70;21.45;;;;;;;21.82;59.95;100824.69;5056584;28;20064;-61
2023/06/08 08:45:48;;;;;;;29.20;17.65;;;;;;;22.19;59.04;100827.41;5063150;28;20424;-62
2023/06/08 08:48:19;;;;;;;32.03;20.25;;;;;;;22.14;58.80;100822.16;5056373;28;20056;-61
2023/06/08 08:50:53;;;;;;;30.50;18.05;;;;;;;21.95;59.08;100819.59;5056993;28;20056;-62
2023/06/08 08:53:27;;;;;;;37.92;19.05;;;;;;;22.12;58.77;100827.34;5056064;28;20060;-62
2023/06/08 08:55:55;;;;;;;25.58;17.00;;;;;;;22.04;59.08;100826.47;5077420;28;20060;-62
2023/06/08 08:58:23;;;;;;;29.33;17.23;;;;;;;22.04;59.05;100817.22;5053761;28;20052;-62
2023/06/08 09:00:51;;;;;;;29.08;19.10;;;;;;;22.00;58.82;100822.81;5062236;28;20063;-62
2023/06/08 09:03:19;;;;;;;32.42;17.40;;;;;;;22.10;59.32;100816.50;5060152;28;20072;-62
2023/06/08 09:05:51;;;;;;;29.95;17.67;;;;;;;22.34;58.52;100820.69;5058293;28;20056;-63
2023/06/08 09:08:18;;;;;;;32.95;18.60;;;;;;;22.05;59.26;100819.69;5060465;28;20060;-62
2023/06/08 09:10:59;;;;;;;29.02;16.80;;;;;;;22.31;59.10;100816.66;5056913;28;20048;-62
2023/06/08 09:13:27;;;;;;;29.30;16.30;;;;;;;22.46;58.13;100825.16;5058302;28;20044;-62
2023/06/08 09:15:54;;;;;;;24.08;17.17;;;;;;;22.41;57.78;100814.31;5055400;28;20056;-62
2023/06/08 09:18:22;;;;;;;28.42;18.08;;;;;;;22.41;58.06;100817.13;5057695;28;20056;-61
2023/06/08 09:20:51;;;;;;;23.15;16.67;;;;;;;22.13;58.80;100810.09;5061169;28;20060;-62
2023/06/08 09:23:24;;;;;;;27.27;15.38;;;;;;;22.18;58.64;100804.13;5061407;28;20061;-62
2023/06/08 09:25:53;;;;;;;24.65;15.13;;;;;;;22.52;57.66;100804.78;5059008;28;20068;-62
2023/06/08 09:28:25;;;;;;;25.08;15.63;;;;;;;22.38;57.53;100793.44;5055217;28;20060;-62
2023/06/08 09:30:57;;;;;;;23.25;15.00;;;;;;;22.35;57.88;100806.25;5057333;28;20067;-62
2023/06/08 09:33:27;;;;;;;23.45;15.75;;;;;;;22.63;57.32;100811.28;5058736;28;20049;-63
2023/06/08 09:35:57;;;;;;;29.92;16.13;;;;;;;22.31;57.99;100799.84;5063658;28;20055;-63
2023/06/08 09:38:26;;;;;;;21.25;13.85;;;;;;;22.71;57.16;100800.91;5060808;28;20048;-63
2023/06/08 09:41:14;;;;;;;18.42;12.65;;;;;;;22.94;55.92;100798.59;5055847;28;20813;-63
2023/06/08 09:43:46;;;;;;;24.02;13.80;;;;;;;22.96;55.16;100805.41;5057458;28;20049;-63
2023/06/08 09:46:31;;;;;;;23.10;13.13;;;;;;;22.93;54.88;100797.78;5062895;28;20057;-63
2023/06/08 09:48:59;;;;;;;22.20;14.40;;;;;;;22.89;55.38;100799.78;5055674;28;20045;-65
2023/06/08 09:51:26;;;;;;;18.35;14.57;;;;;;;22.67;56.00;100800.06;5063078;28;20049;-62
2023/06/08 09:53:58;;;;;;;19.80;13.35;;;;;;;22.69;55.98;100795.66;5054704;28;20037;-61
2023/06/08 09:56:26;;;;;;;19.70;12.10;;;;;;;22.78;55.13;100784.06;5066195;28;20059;-61
2023/06/08 09:59:03;;;;;;;16.02;11.35;;;;;;;23.09;53.90;100791.84;5054657;28;20041;-63
2023/06/08 10:01:42;;;;;;;22.00;11.05;;;;;;;23.39;53.33;100786.75;5054246;28;20052;-61
2023/06/08 10:04:36;;;;;;;20.13;10.75;;;;;;;23.57;52.37;100773.53;5057821;28;20061;-62
2023/06/08 10:07:09;;;;;;;22.05;13.05;;;;;;;23.49;52.29;100783.13;5054896;28;20051;-62
2023/06/08 10:09:37;;;;;;;20.08;12.45;;;;;;;23.25;53.28;100775.44;5052454;28;20068;-61
2023/06/08 10:12:08;;;;;;;15.45;11.82;;;;;;;23.06;52.01;100782.19;5057213;28;20055;-62
2023/06/08 10:14:35;;;;;;;20.15;11.35;;;;;;;23.28;52.17;100772.66;5052764;28;20052;-61
2023/06/08 10:17:03;;;;;;;22.08;11.93;;;;;;;23.61;51.62;100771.50;5061851;28;20048;-62
2023/06/08 10:19:34;;;;;;;23.20;11.65;;;;;;;23.74;51.24;100766.28;5057242;28;20052;-61
2023/06/08 10:22:02;;;;;;;17.60;12.15;;;;;;;23.69;51.74;100767.50;5054037;28;20574;-62
2023/06/08 10:24:30;;;;;;;17.80;10.90;;;;;;;23.84;51.32;100766.31;5060093;28;20064;-61
2023/06/08 10:27:27;;;;;;;21.02;12.00;;;;;;;23.81;51.08;100775.56;5055043;28;20056;-63
2023/06/08 10:30:03;;;;;;;28.13;12.05;;;;;;;23.71;50.55;100764.28;5056186;28;20037;-62
2023/06/08 10:32:42;;;;;;;17.55;10.43;;;;;;;23.79;49.99;100766.72;5053995;28;20045;-61
2023/06/08 10:35:10;;;;;;;14.13;10.10;;;;;;;24.03;49.35;100760.28;5057451;28;20057;-65
2023/06/08 10:37:38;;;;;;;14.07;10.00;;;;;;;24.15;48.58;100761.88;5055058;28;20059;-62
2023/06/08 10:40:10;;;;;;;15.15;10.40;;;;;;;24.22;47.58;100754.25;5055273;28;20044;-64
2023/06/08 10:42:50;;;;;;;17.42;9.68;;;;;;;24.04;47.91;100755.47;5057823;28;20048;-62
2023/06/08 10:45:30;;;;;;;15.13;9.43;;;;;;;24.32;47.49;100752.63;5061350;28;20054;-63
2023/06/08 10:48:07;;;;;;;16.10;9.70;;;;;;;24.37;47.02;100750.19;5058657;28;20057;-63
2023/06/08 10:50:38;;;;;;;15.77;9.85;;;;;;;24.40;46.86;100743.75;5062847;28;20049;-63
2023/06/08 10:53:05;;;;;;;21.10;9.57;;;;;;;24.28;46.26;100738.56;5058776;28;20060;-63
2023/06/08 10:55:33;;;;;;;18.42;9.40;;;;;;;24.31;46.78;100737.72;5062548;28;20052;-63
2023/06/08 10:58:06;;;;;;;16.20;8.95;;;;;;;24.05;47.87;100732.56;5057376;28;20041;-62
2023/06/08 11:00:35;;;;;;;12.77;9.35;;;;;;;24.04;47.57;100733.75;5060178;28;20056;-62
2023/06/08 11:03:06;;;;;;;12.70;9.45;;;;;;;24.08;46.38;100725.28;5054337;28;20063;-61
2023/06/08 11:05:35;;;;;;;18.75;9.57;;;;;;;24.40;46.99;100726.84;5064235;28;20056;-62
2023/06/08 11:08:03;;;;;;;16.98;8.73;;;;;;;24.63;45.75;100720.75;5059119;28;20049;-63
2023/06/08 11:10:32;;;;;;;13.30;8.05;;;;;;;24.66;45.67;100711.47;5057450;28;20037;-62
2023/06/08 11:13:09;;;;;;;15.45;8.27;;;;;;;24.58;45.50;100711.91;5062457;28;20499;-62
2023/06/08 11:15:41;;;;;;;13.00;8.25;;;;;;;24.47;46.11;100709.94;5054729;28;20543;-63
2023/06/08 11:18:10;;;;;;;15.52;8.10;;;;;;;24.65;45.45;100707.06;5056625;28;20071;-63
2023/06/08 11:20:40;;;;;;;14.27;7.47;;;;;;;24.87;43.66;100702.94;5061593;28;20044;-62
2023/06/08 11:23:09;;;;;;;12.55;7.47;;;;;;;24.69;43.62;100695.78;5057126;28;20044;-62